Time;durP1;ratioP1;P1;durP2;ratioP2;P2;SDS_P1;SDS_P2;PMS_P1;PMS_P2;Temp;Humidity;BMP_temperature;BMP_pressure;BME280_temperature;BME280_humidity;BME280_pressure;Samples;Min_cycle;Max_cycle;Signal;HPM_P1;HPM_P2
2021/04/15 00:01:36;;;;;;;12.00;9.87;;;2.20;99.90;;;;;;5034396;28;20190;-66
2021/04/15 00:04:04;;;;;;;11.70;9.80;;;2.20;99.90;;;;;;5033762;28;20194;-66
2021/04/15 00:06:30;;;;;;;12.80;11.20;;;2.10;99.90;;;;;;5018059;28;20437;-68
2021/04/15 00:08:58;;;;;;;12.77;11.60;;;2.00;99.90;;;;;;5023525;28;20448;-67
2021/04/15 00:11:28;;;;;;;12.63;11.33;;;1.80;99.90;;;;;;5033988;28;20461;-68
2021/04/15 00:13:55;;;;;;;14.00;10.93;;;1.80;99.90;;;;;;5033810;28;20437;-66
2021/04/15 00:16:22;;;;;;;17.53;12.03;;;1.70;99.90;;;;;;5033331;28;20447;-67
2021/04/15 00:18:47;;;;;;;13.30;11.90;;;1.70;99.90;;;;;;5033496;28;20453;-66
2021/04/15 00:21:14;;;;;;;13.77;12.20;;;1.70;99.90;;;;;;5033305;28;20469;-67
2021/04/15 00:23:40;;;;;;;13.00;11.53;;;1.80;99.90;;;;;;5033462;28;20214;-67
2021/04/15 00:26:08;;;;;;;17.70;12.70;;;1.70;99.90;;;;;;5033235;28;20849;-67
2021/04/15 00:28:33;;;;;;;13.43;12.13;;;1.70;99.90;;;;;;5033369;28;20369;-67
2021/04/15 00:30:59;;;;;;;16.00;13.73;;;1.70;99.90;;;;;;5033579;28;20990;-67
2021/04/15 00:33:25;;;;;;;13.80;11.63;;;1.60;99.90;;;;;;5033553;28;20186;-67
2021/04/15 00:35:50;;;;;;;14.70;12.30;;;1.70;99.90;;;;;;5033466;28;20247;-66
2021/04/15 00:38:18;;;;;;;16.17;12.23;;;1.70;99.90;;;;;;5033337;28;20206;-68
2021/04/15 00:40:46;;;;;;;17.40;13.30;;;1.70;99.90;;;;;;5033365;28;20194;-67
2021/04/15 00:43:12;;;;;;;16.03;13.53;;;1.70;99.90;;;;;;5033669;28;20433;-68
2021/04/15 00:45:44;;;;;;;16.07;13.53;;;1.70;99.90;;;;;;5033454;28;20519;-67
2021/04/15 00:48:31;;;;;;;14.87;12.77;;;1.70;99.90;;;;;;5033504;28;20972;-66
2021/04/15 00:51:03;;;;;;;15.00;12.97;;;1.70;99.90;;;;;;5033555;28;20630;-67
2021/04/15 00:53:34;;;;;;;15.10;13.20;;;1.70;99.90;;;;;;5033874;28;20487;-67
2021/04/15 00:56:00;;;;;;;17.80;12.43;;;1.70;99.90;;;;;;5033371;28;20510;-67
2021/04/15 00:58:27;;;;;;;17.10;12.67;;;1.60;99.90;;;;;;5033944;28;20456;-67
2021/04/15 01:00:53;;;;;;;15.70;12.70;;;1.60;99.90;;;;;;5031692;28;20504;-67
2021/04/15 01:03:19;;;;;;;13.87;12.43;;;1.70;99.90;;;;;;5033669;28;20433;-67
2021/04/15 01:05:47;;;;;;;15.77;13.30;;;1.70;99.90;;;;;;5033424;28;20440;-67
2021/04/15 01:08:13;;;;;;;16.13;13.93;;;1.60;99.90;;;;;;5032093;28;20285;-66
2021/04/15 01:10:43;;;;;;;15.93;12.90;;;1.60;99.90;;;;;;5033223;28;20440;-67
2021/04/15 01:13:53;;;;;;;19.07;13.37;;;1.60;99.90;;;;;;5033244;28;20467;-67
2021/04/15 01:16:24;;;;;;;19.80;13.37;;;1.50;99.90;;;;;;5011724;28;20445;-66
2021/04/15 01:19:14;;;;;;;16.27;12.70;;;1.50;99.90;;;;;;5030232;28;20467;-66
2021/04/15 01:21:59;;;;;;;15.87;12.57;;;1.40;99.90;;;;;;5033112;28;20884;-66
2021/04/15 01:24:46;;;;;;;14.50;12.50;;;1.30;99.90;;;;;;5032982;28;20926;-66
2021/04/15 01:27:50;;;;;;;14.60;11.87;;;1.20;99.90;;;;;;5031467;28;20485;-67
2021/04/15 01:30:21;;;;;;;14.60;12.40;;;1.20;99.90;;;;;;5032388;28;20883;-65
2021/04/15 01:33:08;;;;;;;16.17;13.20;;;1.20;99.90;;;;;;5032915;28;20520;-66
2021/04/15 01:35:41;;;;;;;16.93;13.50;;;1.20;99.90;;;;;;5032522;28;20419;-67
2021/04/15 01:38:16;;;;;;;14.13;12.63;;;1.20;99.90;;;;;;5033691;28;20448;-66
2021/04/15 01:40:55;;;;;;;15.50;12.80;;;1.20;99.90;;;;;;5033888;28;20499;-65
2021/04/15 01:43:33;;;;;;;19.93;14.00;;;1.20;99.90;;;;;;5017745;28;20436;-65
2021/04/15 01:46:00;;;;;;;22.53;15.10;;;1.10;99.90;;;;;;5032551;28;20944;-65
2021/04/15 01:48:45;;;;;;;17.93;14.17;;;1.20;99.90;;;;;;5032193;28;20459;-67
2021/04/15 01:51:23;;;;;;;17.73;13.47;;;1.30;99.90;;;;;;5030417;28;20444;-65
2021/04/15 01:54:05;;;;;;;18.57;11.50;;;1.20;99.90;;;;;;5032295;28;20798;-66
2021/04/15 01:56:32;;;;;;;15.10;12.40;;;1.20;99.90;;;;;;5032069;28;20838;-65
2021/04/15 01:59:05;;;;;;;18.07;14.17;;;1.10;99.90;;;;;;5031697;28;20914;-67
2021/04/15 02:01:35;;;;;;;16.40;12.67;;;1.00;99.90;;;;;;5031928;28;20499;-66
2021/04/15 02:04:05;;;;;;;15.60;12.47;;;1.00;99.90;;;;;;5032002;28;20424;-67
2021/04/15 02:06:34;;;;;;;15.00;12.60;;;1.00;99.90;;;;;;5031790;28;20425;-66
2021/04/15 02:09:06;;;;;;;13.73;12.27;;;1.10;99.90;;;;;;5031902;28;20425;-66
2021/04/15 02:11:48;;;;;;;13.70;12.27;;;1.10;99.90;;;;;;5032079;28;20425;-67
2021/04/15 02:14:19;;;;;;;12.83;11.50;;;1.10;99.90;;;;;;5031839;28;20429;-66
2021/04/15 02:16:49;;;;;;;17.10;12.40;;;1.00;99.90;;;;;;5030902;28;20476;-67
2021/04/15 02:19:20;;;;;;;13.77;12.27;;;0.90;99.90;;;;;;5031287;28;20456;-66
2021/04/15 02:21:53;;;;;;;13.73;11.70;;;0.90;99.90;;;;;;5031655;28;20428;-65
2021/04/15 02:24:32;;;;;;;13.87;11.13;;;0.90;99.90;;;;;;5017071;28;20433;-66
2021/04/15 02:27:12;;;;;;;19.70;14.20;;;1.00;99.90;;;;;;5031746;28;20444;-67
2021/04/15 02:29:41;;;;;;;19.17;12.60;;;1.00;99.90;;;;;;5031754;28;20501;-66
2021/04/15 02:32:19;;;;;;;15.10;12.93;;;1.00;99.90;;;;;;5031601;28;20485;-67
2021/04/15 02:34:51;;;;;;;16.70;13.07;;;0.90;99.90;;;;;;5032083;28;20766;-68
2021/04/15 02:37:38;;;;;;;12.47;11.03;;;0.80;99.90;;;;;;5031317;28;20483;-67
2021/04/15 02:40:22;;;;;;;14.67;12.40;;;0.80;99.90;;;;;;5031302;28;21009;-66
2021/04/15 02:42:49;;;;;;;14.17;11.73;;;0.80;99.90;;;;;;5031670;28;20479;-68
2021/04/15 02:45:33;;;;;;;14.20;12.27;;;0.70;99.90;;;;;;5031905;28;20432;-67
2021/04/15 02:48:22;;;;;;;17.43;12.27;;;0.60;99.90;;;;;;5030703;28;20445;-67
2021/04/15 02:50:48;;;;;;;15.30;12.33;;;0.50;99.90;;;;;;5013406;28;20437;-67
2021/04/15 02:53:21;;;;;;;17.70;12.87;;;0.50;99.90;;;;;;5031664;28;20945;-67
2021/04/15 02:56:05;;;;;;;15.67;12.90;;;0.60;99.90;;;;;;5031604;28;20186;-66
2021/04/15 02:59:06;;;;;;;14.47;12.63;;;0.50;99.90;;;;;;5030557;28;20536;-67
2021/04/15 03:01:42;;;;;;;15.70;12.70;;;0.60;99.90;;;;;;5027589;28;20475;-67
2021/04/15 03:04:14;;;;;;;13.53;10.77;;;0.60;99.90;;;;;;5024496;28;20447;-68
2021/04/15 03:06:41;;;;;;;17.40;13.20;;;0.60;99.90;;;;;;5031160;28;20432;-68
2021/04/15 03:09:09;;;;;;;13.53;12.10;;;0.60;99.90;;;;;;5030971;28;20515;-67
2021/04/15 03:12:07;;;;;;;12.17;10.87;;;0.50;99.90;;;;;;5031240;28;20444;-67
2021/04/15 03:14:57;;;;;;;14.23;11.37;;;0.50;99.90;;;;;;5017879;28;20529;-66
2021/04/15 03:17:24;;;;;;;15.37;12.57;;;0.50;99.90;;;;;;5026824;28;20476;-66
2021/04/15 03:19:55;;;;;;;15.00;12.10;;;0.50;99.90;;;;;;5031057;28;20463;-67
2021/04/15 03:22:34;;;;;;;15.30;12.50;;;0.40;99.90;;;;;;5031322;28;20508;-66
2021/04/15 03:25:01;;;;;;;20.40;12.13;;;0.40;99.90;;;;;;5024177;28;20420;-68
2021/04/15 03:27:40;;;;;;;14.90;11.57;;;0.40;99.90;;;;;;5031373;28;20976;-66
2021/04/15 03:30:42;;;;;;;14.00;11.00;;;0.40;99.90;;;;;;5031155;28;20537;-67
2021/04/15 03:33:10;;;;;;;15.90;13.33;;;0.30;99.90;;;;;;5002925;28;20441;-67
2021/04/15 03:35:44;;;;;;;14.40;12.90;;;0.30;99.90;;;;;;5031706;28;20425;-67
2021/04/15 03:38:20;;;;;;;16.83;11.30;;;0.30;99.90;;;;;;5031209;28;20459;-67
2021/04/15 03:40:51;;;;;;;15.70;11.83;;;0.30;99.90;;;;;;5032210;28;20480;-67
2021/04/15 03:43:27;;;;;;;13.97;10.50;;;0.30;99.90;;;;;;5042404;28;20432;-66
2021/04/15 03:46:07;;;;;;;15.47;12.57;;;0.30;99.90;;;;;;5031100;28;20436;-67
2021/04/15 03:48:39;;;;;;;13.73;12.17;;;0.30;99.90;;;;;;5031600;28;20447;-66
2021/04/15 03:51:19;;;;;;;12.43;10.17;;;0.30;99.90;;;;;;5032944;28;20424;-66
2021/04/15 03:53:50;;;;;;;16.37;10.90;;;0.30;99.90;;;;;;5034074;28;20490;-67
2021/04/15 03:56:24;;;;;;;16.17;12.37;;;0.30;99.90;;;;;;5035162;28;20954;-67
2021/04/15 03:59:00;;;;;;;15.03;11.73;;;0.20;99.90;;;;;;5034942;28;20431;-66
2021/04/15 04:01:30;;;;;;;13.13;11.83;;;0.10;99.90;;;;;;5034665;28;20475;-66
2021/04/15 04:04:11;;;;;;;15.70;11.70;;;0.20;99.90;;;;;;5034704;28;20441;-67
2021/04/15 04:06:41;;;;;;;12.53;11.20;;;0.10;99.90;;;;;;5034205;28;20439;-67
2021/04/15 04:09:17;;;;;;;12.50;10.63;;;0.10;99.90;;;;;;5033785;28;20448;-67
2021/04/15 04:11:45;;;;;;;14.00;11.17;;;0.10;99.90;;;;;;5033765;28;20437;-67
2021/04/15 04:14:24;;;;;;;15.70;11.03;;;0.10;99.90;;;;;;5034045;28;20957;-67
2021/04/15 04:17:29;;;;;;;12.20;10.97;;;0.00;99.90;;;;;;5033940;28;20502;-67
2021/04/15 04:19:56;;;;;;;11.07;9.93;;;0.10;99.90;;;;;;5033363;28;20456;-67
2021/04/15 04:22:36;;;;;;;11.37;10.17;;;0.10;99.90;;;;;;5033613;28;20995;-66
2021/04/15 04:25:07;;;;;;;12.27;9.50;;;0.10;99.90;;;;;;5032009;28;20433;-67
2021/04/15 04:27:52;;;;;;;15.63;9.50;;;0.10;99.90;;;;;;5031242;28;20535;-67
2021/04/15 04:30:27;;;;;;;13.07;11.63;;;0.20;99.90;;;;;;5032508;28;20432;-67
2021/04/15 04:32:57;;;;;;;12.43;11.13;;;0.20;99.90;;;;;;5032878;28;20797;-67
2021/04/15 04:35:27;;;;;;;12.03;10.37;;;0.20;99.90;;;;;;5032690;28;20523;-67
2021/04/15 04:37:53;;;;;;;10.17;9.20;;;0.20;99.90;;;;;;5033620;28;20844;-67
2021/04/15 04:40:38;;;;;;;16.73;10.80;;;0.10;99.90;;;;;;5033831;28;20595;-67
2021/04/15 04:43:15;;;;;;;12.80;9.40;;;0.10;99.90;;;;;;5033974;28;20475;-67
2021/04/15 04:45:41;;;;;;;12.07;10.67;;;0.10;99.90;;;;;;5034122;28;20464;-65
2021/04/15 04:48:30;;;;;;;14.37;11.10;;;0.10;99.90;;;;;;5034320;28;20965;-67
2021/04/15 04:51:05;;;;;;;13.33;10.93;;;0.10;99.90;;;;;;5034189;28;20186;-67
2021/04/15 04:53:36;;;;;;;16.17;12.57;;;0.20;99.90;;;;;;5034024;28;20525;-67
2021/04/15 04:56:08;;;;;;;14.10;10.97;;;0.20;99.90;;;;;;5034383;28;20451;-66
2021/04/15 04:58:37;;;;;;;13.20;10.87;;;0.30;99.90;;;;;;5033960;28;20452;-67
2021/04/15 05:01:03;;;;;;;14.33;11.73;;;0.30;99.90;;;;;;5033416;28;20488;-67
2021/04/15 05:03:31;;;;;;;15.07;11.97;;;0.40;99.90;;;;;;5033547;28;20944;-67
2021/04/15 05:06:09;;;;;;;15.50;10.97;;;0.50;99.90;;;;;;5028092;28;20516;-66
2021/04/15 05:08:58;;;;;;;16.27;12.03;;;0.60;99.90;;;;;;5021944;28;20445;-67
2021/04/15 05:11:31;;;;;;;13.27;10.90;;;0.70;99.90;;;;;;5032000;28;20442;-67
2021/04/15 05:13:58;;;;;;;14.73;11.80;;;0.70;99.90;;;;;;5031815;28;20447;-66
2021/04/15 05:16:27;;;;;;;13.90;11.93;;;0.70;99.90;;;;;;5031495;28;20437;-67
2021/04/15 05:18:53;;;;;;;12.63;11.33;;;0.80;99.90;;;;;;5031636;28;20440;-67
2021/04/15 05:21:29;;;;;;;12.10;10.70;;;1.00;99.90;;;;;;5031620;28;20524;-67
2021/04/15 05:24:12;;;;;;;18.33;13.40;;;1.10;99.90;;;;;;5031047;28;20662;-67
2021/04/15 05:26:40;;;;;;;13.60;11.20;;;1.20;99.90;;;;;;5023033;28;20482;-68
2021/04/15 05:29:09;;;;;;;14.80;12.43;;;1.30;99.90;;;;;;5030390;28;20474;-68
2021/04/15 05:31:41;;;;;;;13.47;11.00;;;1.40;99.90;;;;;;5030301;28;20516;-66
2021/04/15 05:34:27;;;;;;;15.87;11.60;;;1.60;99.90;;;;;;5030333;28;20439;-65
2021/04/15 05:36:59;;;;;;;15.80;13.20;;;1.70;99.90;;;;;;5030948;28;20850;-65
2021/04/15 05:39:25;;;;;;;14.40;12.83;;;1.90;99.90;;;;;;5030686;28;20482;-66
2021/04/15 05:41:56;;;;;;;16.50;13.63;;;2.10;99.90;;;;;;5029140;28;20433;-66
2021/04/15 05:44:27;;;;;;;13.67;12.23;;;2.10;99.90;;;;;;5027959;28;20420;-66
2021/04/15 05:46:54;;;;;;;14.53;13.03;;;2.10;99.90;;;;;;5028277;28;20448;-66
2021/04/15 05:49:24;;;;;;;18.00;14.60;;;2.10;99.90;;;;;;5024596;28;20428;-66
2021/04/15 05:52:01;;;;;;;18.77;14.00;;;2.00;99.90;;;;;;5024082;28;20429;-66
2021/04/15 05:54:29;;;;;;;14.17;12.73;;;2.00;99.90;;;;;;5030631;28;20828;-66
2021/04/15 05:57:08;;;;;;;15.60;13.33;;;2.00;99.90;;;;;;5026160;28;20527;-67
2021/04/15 05:59:55;;;;;;;17.10;13.77;;;1.90;99.90;;;;;;5027204;28;20452;-66
2021/04/15 06:02:50;;;;;;;18.40;13.70;;;1.90;99.90;;;;;;5028013;28;20476;-66
2021/04/15 06:05:22;;;;;;;16.30;13.90;;;2.00;99.90;;;;;;5027604;28;20859;-66
2021/04/15 06:07:51;;;;;;;19.10;17.10;;;2.10;99.90;;;;;;5021869;28;20591;-67
2021/04/15 06:10:21;;;;;;;18.10;16.13;;;2.20;99.90;;;;;;5025280;28;20478;-66
2021/04/15 06:12:55;;;;;;;16.40;14.07;;;2.30;99.90;;;;;;5029399;28;20419;-66
2021/04/15 06:15:26;;;;;;;18.07;15.17;;;2.60;99.90;;;;;;5000734;28;20441;-67
2021/04/15 06:17:59;;;;;;;13.60;12.20;;;3.00;99.90;;;;;;5021073;28;20523;-67
2021/04/15 06:20:38;;;;;;;18.23;12.67;;;3.30;99.90;;;;;;5018666;28;20459;-67
2021/04/15 06:23:17;;;;;;;13.83;11.43;;;3.50;99.90;;;;;;5020467;28;20424;-68
2021/04/15 06:25:45;;;;;;;11.80;9.90;;;3.80;99.90;;;;;;5024087;28;20432;-67
2021/04/15 06:28:19;;;;;;;8.00;7.20;;;4.10;99.90;;;;;;5022066;28;20456;-67
2021/04/15 06:31:13;;;;;;;8.23;7.13;;;4.20;99.90;;;;;;5020787;28;20797;-67
2021/04/15 06:33:40;;;;;;;8.13;5.90;;;4.40;99.90;;;;;;5028140;28;20450;-67
2021/04/15 06:36:15;;;;;;;6.30;5.70;;;4.60;99.90;;;;;;5025689;28;20433;-67
2021/04/15 06:39:04;;;;;;;6.27;5.70;;;4.80;99.90;;;;;;5024163;28;20482;-67
2021/04/15 06:41:48;;;;;;;5.90;5.20;;;4.90;99.90;;;;;;5019973;28;20461;-67
2021/04/15 06:44:46;;;;;;;6.40;5.53;;;5.10;99.90;;;;;;5020547;28;20420;-67
2021/04/15 06:47:36;;;;;;;6.90;6.17;;;5.30;99.90;;;;;;5026116;28;20439;-67
2021/04/15 06:50:20;;;;;;;7.70;5.50;;;5.40;99.90;;;;;;5032262;28;20461;-67
2021/04/15 06:53:02;;;;;;;5.90;5.37;;;5.40;99.90;;;;;;5023466;28;20516;-67
2021/04/15 06:55:35;;;;;;;6.70;6.10;;;5.40;99.90;;;;;;5020797;28;20423;-67
2021/04/15 06:58:06;;;;;;;8.00;6.00;;;5.40;99.90;;;;;;5024495;28;21048;-67
2021/04/15 07:00:54;;;;;;;7.00;6.30;;;5.50;99.90;;;;;;5030614;28;21025;-67
2021/04/15 07:03:47;;;;;;;7.40;6.60;;;5.70;99.90;;;;;;5024688;28;20977;-67
2021/04/15 07:06:42;;;;;;;7.13;6.53;;;5.90;99.90;;;;;;5022208;28;20443;-67
2021/04/15 07:09:38;;;;;;;6.70;6.10;;;6.10;99.90;;;;;;5020578;28;20518;-67
2021/04/15 07:12:54;;;;;;;6.60;5.90;;;6.20;99.90;;;;;;5023712;28;21023;-66
2021/04/15 07:15:23;;;;;;;6.80;6.20;;;6.10;99.90;;;;;;5022062;28;20460;-68
2021/04/15 07:18:05;;;;;;;6.93;6.17;;;6.10;99.90;;;;;;5023184;28;20470;-67
2021/04/15 07:20:46;;;;;;;6.23;5.63;;;6.30;99.90;;;;;;5033104;28;20464;-67
2021/04/15 07:23:31;;;;;;;9.20;6.10;;;6.50;99.90;;;;;;5020743;28;20443;-67
2021/04/15 07:26:34;;;;;;;7.33;6.27;;;6.60;99.90;;;;;;5027287;28;20424;-67
2021/04/15 07:29:37;;;;;;;7.07;6.47;;;6.80;99.90;;;;;;5025851;28;20514;-67
2021/04/15 07:32:03;;;;;;;8.90;6.53;;;7.10;99.90;;;;;;5026055;28;20794;-66
2021/04/15 07:34:38;;;;;;;8.10;6.63;;;7.40;99.90;;;;;;5029657;28;20432;-67
2021/04/15 07:37:52;;;;;;;7.63;5.90;;;7.40;99.90;;;;;;5023274;28;20221;-67
2021/04/15 07:40:20;;;;;;;5.43;4.73;;;7.50;99.90;;;;;;5017001;28;20465;-67
2021/04/15 07:42:50;;;;;;;6.30;5.10;;;7.60;99.90;;;;;;5029691;28;20523;-67
2021/04/15 07:45:37;;;;;;;6.97;5.30;;;7.80;99.90;;;;;;5025487;28;20432;-66
2021/04/15 07:48:24;;;;;;;6.07;5.47;;;7.90;99.90;;;;;;5028404;28;21993;-67
2021/04/15 07:51:40;;;;;;;5.77;5.20;;;8.20;99.90;;;;;;5022476;28;20971;-66
2021/04/15 07:54:30;;;;;;;8.60;6.53;;;8.30;99.90;;;;;;5029745;28;20437;-69
2021/04/15 07:57:15;;;;;;;7.40;5.90;;;8.40;99.90;;;;;;5021841;28;22658;-67
2021/04/15 08:00:05;;;;;;;6.80;6.10;;;8.70;99.90;;;;;;5024183;28;20433;-67
2021/04/15 08:02:39;;;;;;;8.87;6.63;;;9.00;99.90;;;;;;5027854;28;20445;-67
2021/04/15 08:05:10;;;;;;;9.43;7.40;;;9.30;99.40;;;;;;5029859;28;20447;-68
2021/04/15 08:07:48;;;;;;;7.40;6.70;;;9.30;98.60;;;;;;5024591;28;20452;-67
2021/04/15 08:10:51;;;;;;;6.00;5.40;;;9.40;98.20;;;;;;5026791;28;20809;-68
2021/04/15 08:13:30;;;;;;;9.33;6.33;;;9.60;97.90;;;;;;5027110;28;20867;-68
2021/04/15 08:16:20;;;;;;;6.80;6.20;;;9.90;97.30;;;;;;5024509;28;20461;-67
2021/04/15 08:19:10;;;;;;;7.73;6.20;;;10.00;95.40;;;;;;5020444;28;20515;-68
2021/04/15 08:22:00;;;;;;;6.30;5.70;;;9.90;95.70;;;;;;4972082;28;20479;-67
2021/04/15 08:24:58;;;;;;;8.80;5.70;;;9.60;95.60;;;;;;5029239;28;20508;-68
2021/04/15 08:27:46;;;;;;;10.90;5.60;;;10.10;95.90;;;;;;5019477;28;20460;-67
2021/04/15 08:30:30;;;;;;;8.30;6.20;;;10.60;93.90;;;;;;5023389;28;20440;-67
2021/04/15 08:33:20;;;;;;;6.80;6.10;;;10.80;93.30;;;;;;5026632;28;20451;-69
2021/04/15 08:36:00;;;;;;;7.23;6.57;;;10.90;93.20;;;;;;5031331;28;20464;-67
2021/04/15 08:38:53;;;;;;;7.27;6.67;;;11.10;91.80;;;;;;5026744;28;20704;-67
2021/04/15 08:41:56;;;;;;;10.00;6.20;;;11.20;91.10;;;;;;5025395;28;20492;-67
2021/04/15 08:44:48;;;;;;;6.40;5.67;;;11.30;88.90;;;;;;5020757;28;20452;-67
2021/04/15 08:47:38;;;;;;;9.80;8.47;;;11.50;90.00;;;;;;5023941;28;20445;-67
2021/04/15 08:50:17;;;;;;;7.10;6.43;;;11.60;86.30;;;;;;5025382;28;20504;-67
2021/04/15 08:52:53;;;;;;;8.17;7.40;;;11.90;82.80;;;;;;5023656;28;20475;-67
2021/04/15 08:55:22;;;;;;;6.97;5.73;;;11.90;83.10;;;;;;5022206;28;20460;-67
2021/04/15 08:58:20;;;;;;;6.90;6.20;;;12.10;81.80;;;;;;5026281;28;21005;-67
2021/04/15 09:01:31;;;;;;;7.40;5.80;;;12.40;78.70;;;;;;5024393;28;20457;-67
2021/04/15 09:04:16;;;;;;;7.03;6.20;;;12.50;78.60;;;;;;4976104;28;21027;-68
2021/04/15 09:06:56;;;;;;;7.90;6.80;;;12.70;75.80;;;;;;5025927;28;20942;-68
2021/04/15 09:09:41;;;;;;;7.70;6.27;;;13.10;73.50;;;;;;5025828;28;20429;-67
2021/04/15 09:12:53;;;;;;;6.53;5.90;;;13.20;71.50;;;;;;5022391;28;20440;-68
2021/04/15 09:16:04;;;;;;;6.57;6.07;;;13.80;69.40;;;;;;5024596;28;20796;-68
2021/04/15 09:18:38;;;;;;;8.63;6.33;;;14.00;67.80;;;;;;5024913;28;21061;-69
2021/04/15 09:21:36;;;;;;;6.57;5.67;;;14.40;64.90;;;;;;5026258;28;20902;-67
2021/04/15 09:24:29;;;;;;;6.47;5.97;;;14.40;61.40;;;;;;5025556;28;20953;-67
2021/04/15 09:27:26;;;;;;;7.57;6.20;;;14.80;60.80;;;;;;5023323;28;20487;-68
2021/04/15 09:30:29;;;;;;;6.57;5.43;;;14.70;58.90;;;;;;5020481;28;20444;-68
2021/04/15 09:32:54;;;;;;;5.33;4.83;;;15.30;58.00;;;;;;5027250;28;20428;-68
2021/04/15 09:35:54;;;;;;;7.80;7.00;;;16.20;57.00;;;;;;5022833;28;20536;-67
2021/04/15 09:38:47;;;;;;;8.40;7.70;;;16.30;55.10;;;;;;5029005;28;20320;-68
2021/04/15 09:41:49;;;;;;;6.37;5.60;;;16.50;54.80;;;;;;5024914;28;20474;-68
2021/04/15 09:44:48;;;;;;;5.90;4.80;;;17.50;52.00;;;;;;5030801;28;21132;-68
2021/04/15 09:47:40;;;;;;;6.67;6.00;;;18.30;50.00;;;;;;5016179;28;20830;-67
2021/04/15 09:50:19;;;;;;;6.33;5.77;;;18.40;48.20;;;;;;5024608;28;20456;-67
2021/04/15 09:53:09;;;;;;;7.50;6.70;;;18.40;48.10;;;;;;5026547;28;20487;-67
2021/04/15 09:55:47;;;;;;;7.93;7.17;;;18.10;47.90;;;;;;5031605;28;20429;-68
2021/04/15 09:58:35;;;;;;;5.20;4.60;;;16.80;48.50;;;;;;5030218;28;20555;-67
2021/04/15 10:01:12;;;;;;;4.63;3.80;;;14.90;49.50;;;;;;5024976;28;20464;-66
2021/04/15 10:03:47;;;;;;;4.67;4.33;;;14.70;50.90;;;;;;5024419;28;20440;-67
2021/04/15 10:06:24;;;;;;;6.83;4.23;;;15.50;49.40;;;;;;5030425;28;20428;-67
2021/04/15 10:09:08;;;;;;;4.00;3.60;;;16.80;48.10;;;;;;5020553;28;20435;-66
2021/04/15 10:11:42;;;;;;;5.70;5.10;;;17.50;45.90;;;;;;5030247;28;20472;-66
2021/04/15 10:14:13;;;;;;;4.63;4.13;;;16.70;48.30;;;;;;5029776;28;20427;-66
2021/04/15 10:16:49;;;;;;;3.40;3.20;;;16.70;47.20;;;;;;5030564;28;20452;-66
2021/04/15 10:19:36;;;;;;;5.47;4.17;;;15.60;46.40;;;;;;5029678;28;20436;-66
2021/04/15 10:22:32;;;;;;;4.30;4.00;;;16.20;47.00;;;;;;5029836;28;20531;-66
2021/04/15 10:25:20;;;;;;;4.23;3.77;;;16.50;46.10;;;;;;5020487;28;20427;-66
2021/04/15 10:27:55;;;;;;;5.60;4.97;;;15.90;47.50;;;;;;5029499;28;20449;-66
2021/04/15 10:30:42;;;;;;;5.63;4.80;;;15.30;48.70;;;;;;5020845;28;20786;-65
2021/04/15 10:33:14;;;;;;;7.80;4.27;;;16.80;47.30;;;;;;5026008;28;20962;-66
2021/04/15 10:35:58;;;;;;;4.40;3.67;;;18.40;44.60;;;;;;5025587;28;20428;-66
2021/04/15 10:38:57;;;;;;;4.10;3.80;;;20.40;41.80;;;;;;5028698;28;20448;-66
2021/04/15 10:41:37;;;;;;;4.27;3.93;;;19.80;41.60;;;;;;5030096;28;20521;-65
2021/04/15 10:44:11;;;;;;;5.43;4.30;;;18.10;43.90;;;;;;5030259;28;20456;-67
2021/04/15 10:47:01;;;;;;;5.20;4.60;;;16.50;46.20;;;;;;5030270;28;21018;-66
2021/04/15 10:49:50;;;;;;;4.50;4.20;;;15.70;48.70;;;;;;5029632;28;20456;-66
2021/04/15 10:52:42;;;;;;;4.20;3.80;;;15.10;48.30;;;;;;5017430;28;20421;-66
2021/04/15 10:55:15;;;;;;;3.90;3.50;;;15.00;49.90;;;;;;5029376;28;20428;-68
2021/04/15 10:57:41;;;;;;;3.97;3.60;;;14.70;50.40;;;;;;5029326;28;20815;-67
2021/04/15 11:00:26;;;;;;;4.43;4.03;;;14.90;50.60;;;;;;5028700;28;20522;-66
2021/04/15 11:03:10;;;;;;;3.87;3.57;;;15.40;49.40;;;;;;5021562;28;20436;-66
2021/04/15 11:05:48;;;;;;;4.40;3.73;;;16.10;48.70;;;;;;5026046;28;20425;-66
2021/04/15 11:08:18;;;;;;;5.70;4.07;;;17.80;46.00;;;;;;5033004;28;20444;-66
2021/04/15 11:10:45;;;;;;;4.23;3.90;;;17.40;45.50;;;;;;5024356;28;20425;-67
2021/04/15 11:13:12;;;;;;;5.10;4.70;;;16.40;45.40;;;;;;5033564;28;20960;-66
2021/04/15 11:15:42;;;;;;;5.63;5.13;;;16.90;45.70;;;;;;5034747;28;20515;-67
2021/04/15 11:18:14;;;;;;;5.07;4.67;;;18.40;44.60;;;;;;5029795;28;20491;-66
2021/04/15 11:20:42;;;;;;;5.13;4.57;;;20.30;41.80;;;;;;5032025;28;20452;-66
2021/04/15 11:23:13;;;;;;;4.80;4.43;;;21.40;40.30;;;;;;5033305;28;20470;-66
2021/04/15 11:25:45;;;;;;;5.30;4.80;;;20.40;39.90;;;;;;5032521;28;20435;-67
2021/04/15 11:28:32;;;;;;;4.63;4.23;;;18.90;40.30;;;;;;5030893;28;20448;-68
2021/04/15 11:31:26;;;;;;;5.67;5.20;;;18.60;42.60;;;;;;5031693;28;20431;-66
2021/04/15 11:34:05;;;;;;;5.93;5.43;;;19.30;42.40;;;;;;5025851;28;20432;-66
2021/04/15 11:36:37;;;;;;;6.83;4.20;;;19.20;41.80;;;;;;5032216;28;20472;-65
2021/04/15 11:39:05;;;;;;;4.57;4.27;;;19.80;41.30;;;;;;5032556;28;20431;-66
2021/04/15 11:41:42;;;;;;;4.83;4.40;;;19.80;40.60;;;;;;5032365;28;20514;-65
2021/04/15 11:44:11;;;;;;;4.53;4.13;;;17.70;41.50;;;;;;5032265;28;20420;-67
2021/04/15 11:47:00;;;;;;;4.67;4.27;;;15.70;44.20;;;;;;5032821;28;20475;-66
2021/04/15 11:49:34;;;;;;;4.63;4.23;;;15.90;45.10;;;;;;5028481;28;20432;-66
2021/04/15 11:52:12;;;;;;;4.07;3.87;;;17.20;44.10;;;;;;5033230;28;20472;-66
2021/04/15 11:54:41;;;;;;;11.87;11.03;;;19.70;41.40;;;;;;5031854;28;20432;-65
2021/04/15 11:57:18;;;;;;;4.97;4.50;;;19.70;40.60;;;;;;5035162;28;20452;-65
2021/04/15 12:00:13;;;;;;;6.53;4.23;;;20.60;39.70;;;;;;5029856;28;20453;-66
2021/04/15 12:02:55;;;;;;;7.83;5.13;;;22.40;38.60;;;;;;5021666;28;20444;-66
2021/04/15 12:05:33;;;;;;;3.80;3.50;;;22.60;36.40;;;;;;5026616;28;20428;-66
2021/04/15 12:08:22;;;;;;;5.00;4.50;;;22.00;37.10;;;;;;5025125;28;20445;-65
2021/04/15 12:10:59;;;;;;;5.47;4.40;;;21.50;37.10;;;;;;5025896;28;20436;-65
2021/04/15 12:13:39;;;;;;;4.00;3.70;;;19.50;38.20;;;;;;5033070;28;20420;-65
2021/04/15 12:16:18;;;;;;;4.20;3.90;;;20.20;38.10;;;;;;5027646;28;20424;-66
2021/04/15 12:18:47;;;;;;;3.67;3.37;;;21.40;37.00;;;;;;5031503;28;20464;-66
2021/04/15 12:21:31;;;;;;;7.40;3.30;;;23.00;34.50;;;;;;5031693;28;20985;-67
2021/04/15 12:24:02;;;;;;;3.87;3.57;;;23.00;33.60;;;;;;5028398;28;20920;-66
2021/04/15 12:26:49;;;;;;;3.50;2.83;;;23.90;32.60;;;;;;5021553;28;20433;-65
2021/04/15 12:29:19;;;;;;;3.50;3.20;;;24.60;32.10;;;;;;5015692;28;20437;-66
2021/04/15 12:31:45;;;;;;;4.40;4.00;;;25.70;30.80;;;;;;5020214;28;20519;-66
2021/04/15 12:34:13;;;;;;;3.90;3.60;;;26.60;30.30;;;;;;5019296;28;20429;-66
2021/04/15 12:36:51;;;;;;;3.83;3.60;;;26.90;29.50;;;;;;5024095;28;20190;-65
2021/04/15 12:39:23;;;;;;;5.47;3.93;;;25.00;29.70;;;;;;5023892;28;20439;-67
2021/04/15 12:41:51;;;;;;;5.60;5.13;;;23.60;30.70;;;;;;5023377;28;20498;-66
2021/04/15 12:44:24;;;;;;;4.90;3.93;;;22.90;31.60;;;;;;5022332;28;20432;-66
2021/04/15 12:46:52;;;;;;;3.93;3.63;;;19.30;33.30;;;;;;5022523;28;20452;-66
2021/04/15 12:49:22;;;;;;;3.73;3.43;;;16.70;37.40;;;;;;5018450;28;20433;-65
2021/04/15 12:51:52;;;;;;;4.53;4.20;;;15.60;39.60;;;;;;5019420;28;20444;-66
2021/04/15 12:54:29;;;;;;;4.07;3.73;;;16.50;40.30;;;;;;5020297;28;20426;-67
2021/04/15 12:57:00;;;;;;;3.90;3.60;;;18.90;38.00;;;;;;5018437;28;20468;-66
2021/04/15 12:59:47;;;;;;;4.40;4.00;;;20.90;33.70;;;;;;5017884;28;22713;-66
2021/04/15 13:02:23;;;;;;;5.50;4.80;;;21.30;34.50;;;;;;5018953;28;20431;-67
2021/04/15 13:04:53;;;;;;;4.70;4.07;;;22.10;33.40;;;;;;5022731;28;20424;-66
2021/04/15 13:07:22;;;;;;;4.60;4.20;;;23.90;32.40;;;;;;5019000;28;21192;-67
2021/04/15 13:09:50;;;;;;;4.80;4.40;;;25.40;30.10;;;;;;5016286;28;20429;-67
2021/04/15 13:12:19;;;;;;;5.17;4.20;;;26.40;29.40;;;;;;5020823;28;20465;-67
2021/04/15 13:14:51;;;;;;;5.23;4.53;;;24.40;30.00;;;;;;5020146;28;20444;-65
2021/04/15 13:17:35;;;;;;;4.37;4.07;;;22.90;31.30;;;;;;5018526;28;20551;-66
2021/04/15 13:20:10;;;;;;;4.80;3.80;;;22.40;32.40;;;;;;5016022;28;20500;-67
2021/04/15 13:22:39;;;;;;;4.77;4.37;;;22.10;33.00;;;;;;5026180;28;20500;-66
2021/04/15 13:25:10;;;;;;;4.90;4.50;;;22.60;32.70;;;;;;5017800;28;20430;-66
2021/04/15 13:27:38;;;;;;;4.60;4.30;;;22.90;32.90;;;;;;5029995;28;20514;-65
2021/04/15 13:30:26;;;;;;;4.57;4.20;;;20.70;33.30;;;;;;5021649;28;20433;-66
2021/04/15 13:33:14;;;;;;;4.93;4.47;;;17.50;37.80;;;;;;5017591;28;20428;-66
2021/04/15 13:35:46;;;;;;;4.30;4.00;;;15.10;42.30;;;;;;5018811;28;20449;-66
2021/04/15 13:38:31;;;;;;;4.23;3.93;;;13.50;45.80;;;;;;5020281;28;20459;-66
2021/04/15 13:40:59;;;;;;;4.70;4.30;;;12.50;49.40;;;;;;5016777;28;20542;-67